sensor_id;sensor_type;location;lat;lon;timestamp;P1;durP1;ratioP1;P2;durP2;ratioP2
64938;SDS011;51453;47.738;7.420;2024-03-07T00:00:19;27.55;;;14.73;;
64938;SDS011;51453;47.738;7.420;2024-03-07T00:02:50;23.98;;;13.23;;
64938;SDS011;51453;47.738;7.420;2024-03-07T00:05:20;24.10;;;13.27;;
64938;SDS011;51453;47.738;7.420;2024-03-07T00:07:49;20.75;;;13.38;;
64938;SDS011;51453;47.738;7.420;2024-03-07T00:10:15;23.63;;;12.85;;
64938;SDS011;51453;47.738;7.420;2024-03-07T00:12:42;21.77;;;13.25;;
64938;SDS011;51453;47.738;7.420;2024-03-07T00:15:09;25.25;;;13.35;;
64938;SDS011;51453;47.738;7.420;2024-03-07T00:17:36;22.30;;;12.15;;
64938;SDS011;51453;47.738;7.420;2024-03-07T00:20:03;18.90;;;12.38;;
64938;SDS011;51453;47.738;7.420;2024-03-07T00:24:59;21.42;;;11.98;;
64938;SDS011;51453;47.738;7.420;2024-03-07T00:27:24;21.48;;;11.23;;
64938;SDS011;51453;47.738;7.420;2024-03-07T00:29:51;22.17;;;12.57;;
64938;SDS011;51453;47.738;7.420;2024-03-07T00:32:20;24.30;;;12.82;;
64938;SDS011;51453;47.738;7.420;2024-03-07T00:34:46;20.55;;;13.63;;
64938;SDS011;51453;47.738;7.420;2024-03-07T00:37:12;21.58;;;13.10;;
64938;SDS011;51453;47.738;7.420;2024-03-07T00:39:38;20.88;;;13.65;;
64938;SDS011;51453;47.738;7.420;2024-03-07T00:42:03;21.10;;;13.48;;
64938;SDS011;51453;47.738;7.420;2024-03-07T00:44:29;22.20;;;13.30;;
64938;SDS011;51453;47.738;7.420;2024-03-07T00:46:55;22.15;;;14.10;;
64938;SDS011;51453;47.738;7.420;2024-03-07T00:49:21;23.33;;;13.80;;
64938;SDS011;51453;47.738;7.420;2024-03-07T00:51:47;25.98;;;14.10;;
64938;SDS011;51453;47.738;7.420;2024-03-07T00:54:13;29.35;;;14.60;;
64938;SDS011;51453;47.738;7.420;2024-03-07T00:56:39;28.55;;;14.57;;
64938;SDS011;51453;47.738;7.420;2024-03-07T00:59:05;25.77;;;15.25;;
64938;SDS011;51453;47.738;7.420;2024-03-07T01:01:31;24.90;;;15.35;;
64938;SDS011;51453;47.738;7.420;2024-03-07T01:03:59;31.05;;;15.82;;
64938;SDS011;51453;47.738;7.420;2024-03-07T01:06:25;30.55;;;16.15;;
64938;SDS011;51453;47.738;7.420;2024-03-07T01:08:51;30.10;;;16.35;;
64938;SDS011;51453;47.738;7.420;2024-03-07T01:11:17;30.45;;;15.98;;
64938;SDS011;51453;47.738;7.420;2024-03-07T01:13:42;30.63;;;16.95;;
64938;SDS011;51453;47.738;7.420;2024-03-07T01:16:08;30.63;;;16.63;;
64938;SDS011;51453;47.738;7.420;2024-03-07T01:18:34;29.65;;;16.08;;
64938;SDS011;51453;47.738;7.420;2024-03-07T01:21:00;29.50;;;15.95;;
64938;SDS011;51453;47.738;7.420;2024-03-07T01:23:26;29.23;;;16.77;;
64938;SDS011;51453;47.738;7.420;2024-03-07T01:25:55;30.45;;;16.85;;
64938;SDS011;51453;47.738;7.420;2024-03-07T01:28:24;30.50;;;16.80;;
64938;SDS011;51453;47.738;7.420;2024-03-07T01:30:55;29.60;;;16.55;;
64938;SDS011;51453;47.738;7.420;2024-03-07T01:33:21;28.65;;;16.83;;
64938;SDS011;51453;47.738;7.420;2024-03-07T01:35:47;29.83;;;17.20;;
64938;SDS011;51453;47.738;7.420;2024-03-07T01:38:13;33.85;;;17.67;;
64938;SDS011;51453;47.738;7.420;2024-03-07T01:40:40;38.42;;;19.15;;
64938;SDS011;51453;47.738;7.420;2024-03-07T01:43:06;37.75;;;20.48;;
64938;SDS011;51453;47.738;7.420;2024-03-07T01:45:32;34.67;;;18.70;;
64938;SDS011;51453;47.738;7.420;2024-03-07T01:47:58;38.42;;;19.10;;
64938;SDS011;51453;47.738;7.420;2024-03-07T01:50:24;36.92;;;20.15;;
64938;SDS011;51453;47.738;7.420;2024-03-07T01:52:50;35.85;;;19.63;;
64938;SDS011;51453;47.738;7.420;2024-03-07T01:55:16;35.88;;;20.45;;
64938;SDS011;51453;47.738;7.420;2024-03-07T01:57:43;38.15;;;19.90;;
64938;SDS011;51453;47.738;7.420;2024-03-07T02:00:10;34.65;;;19.98;;
64938;SDS011;51453;47.738;7.420;2024-03-07T02:02:36;42.08;;;20.20;;
64938;SDS011;51453;47.738;7.420;2024-03-07T02:05:02;37.95;;;20.73;;
64938;SDS011;51453;47.738;7.420;2024-03-07T02:07:29;36.28;;;19.58;;
64938;SDS011;51453;47.738;7.420;2024-03-07T02:10:13;43.00;;;21.20;;
64938;SDS011;51453;47.738;7.420;2024-03-07T02:12:39;37.60;;;20.35;;
64938;SDS011;51453;47.738;7.420;2024-03-07T02:15:05;36.33;;;21.23;;
64938;SDS011;51453;47.738;7.420;2024-03-07T02:17:31;38.00;;;21.02;;
64938;SDS011;51453;47.738;7.420;2024-03-07T02:19:57;40.72;;;21.88;;
64938;SDS011;51453;47.738;7.420;2024-03-07T02:22:23;41.20;;;20.83;;
64938;SDS011;51453;47.738;7.420;2024-03-07T02:24:51;41.75;;;22.15;;
64938;SDS011;51453;47.738;7.420;2024-03-07T02:27:16;41.72;;;22.73;;
64938;SDS011;51453;47.738;7.420;2024-03-07T02:29:42;40.97;;;21.83;;
64938;SDS011;51453;47.738;7.420;2024-03-07T02:32:08;46.05;;;23.42;;
64938;SDS011;51453;47.738;7.420;2024-03-07T02:34:35;48.80;;;24.02;;
64938;SDS011;51453;47.738;7.420;2024-03-07T02:37:01;46.63;;;24.65;;
64938;SDS011;51453;47.738;7.420;2024-03-07T02:39:26;45.33;;;22.77;;
64938;SDS011;51453;47.738;7.420;2024-03-07T02:41:52;43.50;;;23.50;;
64938;SDS011;51453;47.738;7.420;2024-03-07T02:44:18;46.42;;;23.30;;
64938;SDS011;51453;47.738;7.420;2024-03-07T02:46:44;49.03;;;25.13;;
64938;SDS011;51453;47.738;7.420;2024-03-07T02:49:12;47.92;;;24.38;;
64938;SDS011;51453;47.738;7.420;2024-03-07T02:51:40;50.92;;;24.92;;
64938;SDS011;51453;47.738;7.420;2024-03-07T02:54:07;48.42;;;25.35;;
64938;SDS011;51453;47.738;7.420;2024-03-07T02:56:33;52.40;;;25.75;;
64938;SDS011;51453;47.738;7.420;2024-03-07T02:58:59;51.47;;;26.33;;
64938;SDS011;51453;47.738;7.420;2024-03-07T03:01:24;55.33;;;26.45;;
64938;SDS011;51453;47.738;7.420;2024-03-07T03:03:50;52.20;;;25.65;;
64938;SDS011;51453;47.738;7.420;2024-03-07T03:06:16;52.47;;;26.85;;
64938;SDS011;51453;47.738;7.420;2024-03-07T03:08:45;49.63;;;25.33;;
64938;SDS011;51453;47.738;7.420;2024-03-07T03:11:11;57.75;;;27.10;;
64938;SDS011;51453;47.738;7.420;2024-03-07T03:13:38;51.45;;;25.95;;
64938;SDS011;51453;47.738;7.420;2024-03-07T03:16:05;55.75;;;25.63;;
64938;SDS011;51453;47.738;7.420;2024-03-07T03:18:34;51.42;;;25.95;;
64938;SDS011;51453;47.738;7.420;2024-03-07T03:21:00;51.92;;;25.85;;
64938;SDS011;51453;47.738;7.420;2024-03-07T03:23:27;51.33;;;25.08;;
64938;SDS011;51453;47.738;7.420;2024-03-07T03:25:53;50.17;;;25.63;;
64938;SDS011;51453;47.738;7.420;2024-03-07T03:28:18;53.33;;;25.27;;
64938;SDS011;51453;47.738;7.420;2024-03-07T03:30:45;52.42;;;26.00;;
64938;SDS011;51453;47.738;7.420;2024-03-07T03:33:12;52.78;;;25.38;;
64938;SDS011;51453;47.738;7.420;2024-03-07T03:35:38;46.88;;;24.92;;
64938;SDS011;51453;47.738;7.420;2024-03-07T03:38:03;51.83;;;25.75;;
64938;SDS011;51453;47.738;7.420;2024-03-07T03:40:29;50.70;;;26.10;;
64938;SDS011;51453;47.738;7.420;2024-03-07T03:42:55;51.35;;;26.33;;
64938;SDS011;51453;47.738;7.420;2024-03-07T03:45:21;54.10;;;24.77;;
64938;SDS011;51453;47.738;7.420;2024-03-07T03:47:47;51.88;;;26.45;;
64938;SDS011;51453;47.738;7.420;2024-03-07T03:50:13;55.05;;;26.38;;
64938;SDS011;51453;47.738;7.420;2024-03-07T03:52:42;54.38;;;25.80;;
64938;SDS011;51453;47.738;7.420;2024-03-07T03:55:07;57.42;;;25.52;;
64938;SDS011;51453;47.738;7.420;2024-03-07T03:57:37;55.10;;;25.45;;
64938;SDS011;51453;47.738;7.420;2024-03-07T04:00:05;51.00;;;25.17;;
64938;SDS011;51453;47.738;7.420;2024-03-07T04:02:45;50.97;;;25.42;;
64938;SDS011;51453;47.738;7.420;2024-03-07T04:05:15;52.90;;;25.00;;
64938;SDS011;51453;47.738;7.420;2024-03-07T04:07:41;50.67;;;24.90;;
64938;SDS011;51453;47.738;7.420;2024-03-07T04:10:07;56.83;;;25.83;;
64938;SDS011;51453;47.738;7.420;2024-03-07T04:12:37;60.05;;;27.88;;
64938;SDS011;51453;47.738;7.420;2024-03-07T04:15:05;60.28;;;28.13;;
64938;SDS011;51453;47.738;7.420;2024-03-07T04:17:35;53.38;;;26.92;;
64938;SDS011;51453;47.738;7.420;2024-03-07T04:20:05;55.28;;;25.85;;
64938;SDS011;51453;47.738;7.420;2024-03-07T04:22:35;53.25;;;25.67;;
64938;SDS011;51453;47.738;7.420;2024-03-07T04:25:04;55.60;;;26.45;;
64938;SDS011;51453;47.738;7.420;2024-03-07T04:27:32;56.30;;;26.98;;
64938;SDS011;51453;47.738;7.420;2024-03-07T04:29:59;57.22;;;26.77;;
64938;SDS011;51453;47.738;7.420;2024-03-07T04:32:28;59.85;;;27.63;;
64938;SDS011;51453;47.738;7.420;2024-03-07T04:34:54;55.83;;;26.20;;
64938;SDS011;51453;47.738;7.420;2024-03-07T04:37:22;55.17;;;26.58;;
64938;SDS011;51453;47.738;7.420;2024-03-07T04:39:48;55.33;;;26.88;;
64938;SDS011;51453;47.738;7.420;2024-03-07T04:42:13;57.35;;;26.65;;
64938;SDS011;51453;47.738;7.420;2024-03-07T04:44:39;58.05;;;27.52;;
64938;SDS011;51453;47.738;7.420;2024-03-07T04:47:05;54.00;;;27.35;;
64938;SDS011;51453;47.738;7.420;2024-03-07T04:49:31;53.58;;;26.45;;
64938;SDS011;51453;47.738;7.420;2024-03-07T04:51:58;59.97;;;27.75;;
64938;SDS011;51453;47.738;7.420;2024-03-07T04:54:25;56.72;;;26.70;;
64938;SDS011;51453;47.738;7.420;2024-03-07T04:56:52;57.75;;;27.70;;
64938;SDS011;51453;47.738;7.420;2024-03-07T04:59:18;50.17;;;26.17;;
64938;SDS011;51453;47.738;7.420;2024-03-07T05:01:45;52.53;;;25.65;;
64938;SDS011;51453;47.738;7.420;2024-03-07T05:04:12;47.40;;;25.08;;
64938;SDS011;51453;47.738;7.420;2024-03-07T05:06:39;42.78;;;22.67;;
64938;SDS011;51453;47.738;7.420;2024-03-07T05:09:05;42.15;;;21.17;;
64938;SDS011;51453;47.738;7.420;2024-03-07T05:11:38;38.92;;;21.52;;
64938;SDS011;51453;47.738;7.420;2024-03-07T05:14:04;36.70;;;20.50;;
64938;SDS011;51453;47.738;7.420;2024-03-07T05:16:30;40.92;;;21.13;;
64938;SDS011;51453;47.738;7.420;2024-03-07T05:18:59;41.85;;;21.58;;
64938;SDS011;51453;47.738;7.420;2024-03-07T05:21:27;39.60;;;20.58;;
64938;SDS011;51453;47.738;7.420;2024-03-07T05:23:59;37.15;;;21.50;;
64938;SDS011;51453;47.738;7.420;2024-03-07T05:26:26;38.88;;;21.20;;
64938;SDS011;51453;47.738;7.420;2024-03-07T05:28:52;37.80;;;20.17;;
64938;SDS011;51453;47.738;7.420;2024-03-07T05:31:19;39.97;;;20.88;;
64938;SDS011;51453;47.738;7.420;2024-03-07T05:33:46;39.60;;;22.63;;
64938;SDS011;51453;47.738;7.420;2024-03-07T05:36:12;39.08;;;22.30;;
64938;SDS011;51453;47.738;7.420;2024-03-07T05:38:43;34.95;;;20.40;;
64938;SDS011;51453;47.738;7.420;2024-03-07T05:41:10;39.08;;;21.23;;
64938;SDS011;51453;47.738;7.420;2024-03-07T05:43:37;39.15;;;21.40;;
64938;SDS011;51453;47.738;7.420;2024-03-07T05:46:03;41.67;;;22.40;;
64938;SDS011;51453;47.738;7.420;2024-03-07T05:48:31;38.83;;;21.15;;
64938;SDS011;51453;47.738;7.420;2024-03-07T05:50:57;43.47;;;23.10;;
64938;SDS011;51453;47.738;7.420;2024-03-07T05:53:23;45.35;;;23.85;;
64938;SDS011;51453;47.738;7.420;2024-03-07T05:55:49;43.95;;;24.55;;
64938;SDS011;51453;47.738;7.420;2024-03-07T05:58:15;48.97;;;23.85;;
64938;SDS011;51453;47.738;7.420;2024-03-07T06:00:44;50.67;;;23.50;;
64938;SDS011;51453;47.738;7.420;2024-03-07T06:03:14;42.85;;;23.35;;
64938;SDS011;51453;47.738;7.420;2024-03-07T06:05:45;46.72;;;24.15;;
64938;SDS011;51453;47.738;7.420;2024-03-07T06:08:15;42.28;;;23.27;;
64938;SDS011;51453;47.738;7.420;2024-03-07T06:10:42;45.78;;;24.13;;
64938;SDS011;51453;47.738;7.420;2024-03-07T06:13:08;52.10;;;25.52;;
64938;SDS011;51453;47.738;7.420;2024-03-07T06:15:36;54.40;;;26.67;;
64938;SDS011;51453;47.738;7.420;2024-03-07T06:18:05;54.83;;;26.48;;
64938;SDS011;51453;47.738;7.420;2024-03-07T06:20:33;52.88;;;27.05;;
64938;SDS011;51453;47.738;7.420;2024-03-07T06:23:00;57.88;;;28.40;;
64938;SDS011;51453;47.738;7.420;2024-03-07T06:25:33;57.97;;;26.55;;
64938;SDS011;51453;47.738;7.420;2024-03-07T06:28:00;55.38;;;26.63;;
64938;SDS011;51453;47.738;7.420;2024-03-07T06:30:34;57.40;;;27.20;;
64938;SDS011;51453;47.738;7.420;2024-03-07T06:33:12;56.30;;;26.92;;
64938;SDS011;51453;47.738;7.420;2024-03-07T06:35:39;56.75;;;26.73;;
64938;SDS011;51453;47.738;7.420;2024-03-07T06:38:06;56.33;;;25.65;;
64938;SDS011;51453;47.738;7.420;2024-03-07T06:40:38;48.85;;;24.13;;
64938;SDS011;51453;47.738;7.420;2024-03-07T06:43:05;50.13;;;24.10;;
64938;SDS011;51453;47.738;7.420;2024-03-07T06:45:35;49.08;;;25.83;;
64938;SDS011;51453;47.738;7.420;2024-03-07T06:48:02;48.50;;;24.20;;
64938;SDS011;51453;47.738;7.420;2024-03-07T06:50:35;47.17;;;24.52;;
64938;SDS011;51453;47.738;7.420;2024-03-07T06:53:01;48.78;;;24.80;;
64938;SDS011;51453;47.738;7.420;2024-03-07T06:55:32;47.70;;;24.20;;
64938;SDS011;51453;47.738;7.420;2024-03-07T06:57:58;41.28;;;22.33;;
64938;SDS011;51453;47.738;7.420;2024-03-07T07:00:25;48.17;;;24.35;;
64938;SDS011;51453;47.738;7.420;2024-03-07T07:02:51;41.72;;;22.13;;
64938;SDS011;51453;47.738;7.420;2024-03-07T07:05:20;41.28;;;22.65;;
64938;SDS011;51453;47.738;7.420;2024-03-07T07:07:46;38.83;;;21.25;;
64938;SDS011;51453;47.738;7.420;2024-03-07T07:10:13;34.95;;;20.13;;
64938;SDS011;51453;47.738;7.420;2024-03-07T07:12:43;40.17;;;21.90;;
64938;SDS011;51453;47.738;7.420;2024-03-07T07:15:13;42.80;;;21.38;;
64938;SDS011;51453;47.738;7.420;2024-03-07T07:17:41;40.25;;;21.73;;
64938;SDS011;51453;47.738;7.420;2024-03-07T07:20:07;39.70;;;22.08;;
64938;SDS011;51453;47.738;7.420;2024-03-07T07:22:38;35.47;;;21.50;;
64938;SDS011;51453;47.738;7.420;2024-03-07T07:25:05;38.85;;;21.35;;
64938;SDS011;51453;47.738;7.420;2024-03-07T07:27:38;42.53;;;22.83;;
64938;SDS011;51453;47.738;7.420;2024-03-07T07:30:10;38.95;;;22.52;;
64938;SDS011;51453;47.738;7.420;2024-03-07T07:32:37;42.33;;;22.77;;
64938;SDS011;51453;47.738;7.420;2024-03-07T07:35:03;37.92;;;21.90;;
64938;SDS011;51453;47.738;7.420;2024-03-07T07:37:34;42.00;;;22.10;;
64938;SDS011;51453;47.738;7.420;2024-03-07T07:40:00;46.22;;;24.30;;
64938;SDS011;51453;47.738;7.420;2024-03-07T07:42:26;49.72;;;24.45;;
64938;SDS011;51453;47.738;7.420;2024-03-07T07:44:53;52.53;;;26.75;;
64938;SDS011;51453;47.738;7.420;2024-03-07T07:47:18;49.30;;;25.20;;
64938;SDS011;51453;47.738;7.420;2024-03-07T07:49:44;52.42;;;26.42;;
64938;SDS011;51453;47.738;7.420;2024-03-07T07:52:09;56.97;;;27.13;;
64938;SDS011;51453;47.738;7.420;2024-03-07T07:54:40;54.42;;;26.83;;
64938;SDS011;51453;47.738;7.420;2024-03-07T07:57:07;52.67;;;25.63;;
64938;SDS011;51453;47.738;7.420;2024-03-07T07:59:33;49.78;;;25.52;;
64938;SDS011;51453;47.738;7.420;2024-03-07T08:01:58;46.65;;;24.45;;
64938;SDS011;51453;47.738;7.420;2024-03-07T08:04:24;50.45;;;25.23;;
64938;SDS011;51453;47.738;7.420;2024-03-07T08:06:50;45.65;;;24.70;;
64938;SDS011;51453;47.738;7.420;2024-03-07T08:09:16;53.47;;;25.20;;
64938;SDS011;51453;47.738;7.420;2024-03-07T08:11:42;47.05;;;24.40;;
64938;SDS011;51453;47.738;7.420;2024-03-07T08:14:08;53.67;;;25.58;;
64938;SDS011;51453;47.738;7.420;2024-03-07T08:16:33;51.70;;;24.60;;
64938;SDS011;51453;47.738;7.420;2024-03-07T08:18:59;51.97;;;25.30;;
64938;SDS011;51453;47.738;7.420;2024-03-07T08:21:25;47.72;;;25.50;;
64938;SDS011;51453;47.738;7.420;2024-03-07T08:23:50;49.85;;;25.42;;
64938;SDS011;51453;47.738;7.420;2024-03-07T08:26:16;51.15;;;26.13;;
64938;SDS011;51453;47.738;7.420;2024-03-07T08:28:42;53.30;;;26.08;;
64938;SDS011;51453;47.738;7.420;2024-03-07T08:31:07;49.97;;;25.58;;
64938;SDS011;51453;47.738;7.420;2024-03-07T08:33:34;52.42;;;25.85;;
64938;SDS011;51453;47.738;7.420;2024-03-07T08:36:00;53.33;;;27.10;;
64938;SDS011;51453;47.738;7.420;2024-03-07T08:38:26;54.15;;;26.73;;
64938;SDS011;51453;47.738;7.420;2024-03-07T08:40:51;51.83;;;26.48;;
64938;SDS011;51453;47.738;7.420;2024-03-07T08:43:18;48.60;;;25.38;;
64938;SDS011;51453;47.738;7.420;2024-03-07T08:45:43;50.42;;;25.17;;
64938;SDS011;51453;47.738;7.420;2024-03-07T08:48:09;50.72;;;26.27;;
64938;SDS011;51453;47.738;7.420;2024-03-07T08:50:35;53.65;;;27.10;;
64938;SDS011;51453;47.738;7.420;2024-03-07T08:53:02;52.38;;;27.25;;
64938;SDS011;51453;47.738;7.420;2024-03-07T08:55:29;55.08;;;26.65;;
64938;SDS011;51453;47.738;7.420;2024-03-07T08:57:55;46.35;;;25.00;;
64938;SDS011;51453;47.738;7.420;2024-03-07T09:00:21;43.90;;;24.92;;
64938;SDS011;51453;47.738;7.420;2024-03-07T09:02:52;43.88;;;24.52;;
64938;SDS011;51453;47.738;7.420;2024-03-07T09:05:18;40.83;;;23.83;;
64938;SDS011;51453;47.738;7.420;2024-03-07T09:07:45;71.38;;;36.50;;
64938;SDS011;51453;47.738;7.420;2024-03-07T09:10:12;74.57;;;37.35;;
64938;SDS011;51453;47.738;7.420;2024-03-07T09:12:39;74.20;;;37.83;;
64938;SDS011;51453;47.738;7.420;2024-03-07T09:15:05;77.07;;;39.05;;
64938;SDS011;51453;47.738;7.420;2024-03-07T09:17:31;80.13;;;39.35;;
64938;SDS011;51453;47.738;7.420;2024-03-07T09:19:57;77.25;;;39.63;;
64938;SDS011;51453;47.738;7.420;2024-03-07T09:22:23;74.05;;;39.35;;
64938;SDS011;51453;47.738;7.420;2024-03-07T09:24:48;76.43;;;39.75;;
64938;SDS011;51453;47.738;7.420;2024-03-07T09:27:14;78.57;;;40.33;;
64938;SDS011;51453;47.738;7.420;2024-03-07T09:29:40;71.70;;;38.22;;
64938;SDS011;51453;47.738;7.420;2024-03-07T09:32:06;79.60;;;39.47;;
64938;SDS011;51453;47.738;7.420;2024-03-07T09:34:34;80.88;;;40.33;;
64938;SDS011;51453;47.738;7.420;2024-03-07T09:37:03;77.05;;;39.50;;
64938;SDS011;51453;47.738;7.420;2024-03-07T09:39:28;76.75;;;38.83;;
64938;SDS011;51453;47.738;7.420;2024-03-07T09:41:56;67.82;;;36.53;;
64938;SDS011;51453;47.738;7.420;2024-03-07T09:44:23;69.20;;;37.72;;
64938;SDS011;51453;47.738;7.420;2024-03-07T09:46:52;66.68;;;35.33;;
64938;SDS011;51453;47.738;7.420;2024-03-07T09:49:25;69.88;;;37.15;;
64938;SDS011;51453;47.738;7.420;2024-03-07T09:51:53;64.75;;;36.55;;
64938;SDS011;51453;47.738;7.420;2024-03-07T09:54:22;65.85;;;36.78;;
64938;SDS011;51453;47.738;7.420;2024-03-07T09:56:50;66.15;;;36.30;;
64938;SDS011;51453;47.738;7.420;2024-03-07T09:59:20;67.28;;;36.22;;
64938;SDS011;51453;47.738;7.420;2024-03-07T10:01:51;71.75;;;36.80;;
64938;SDS011;51453;47.738;7.420;2024-03-07T10:04:25;67.22;;;37.53;;
64938;SDS011;51453;47.738;7.420;2024-03-07T10:07:13;66.05;;;36.42;;
64938;SDS011;51453;47.738;7.420;2024-03-07T10:09:40;62.75;;;35.17;;
64938;SDS011;51453;47.738;7.420;2024-03-07T10:12:07;60.17;;;34.00;;
64938;SDS011;51453;47.738;7.420;2024-03-07T10:14:37;70.88;;;37.58;;
64938;SDS011;51453;47.738;7.420;2024-03-07T10:17:04;66.30;;;35.35;;
64938;SDS011;51453;47.738;7.420;2024-03-07T10:19:30;66.38;;;35.08;;
64938;SDS011;51453;47.738;7.420;2024-03-07T10:21:56;68.18;;;36.10;;
64938;SDS011;51453;47.738;7.420;2024-03-07T10:24:26;64.05;;;35.17;;
64938;SDS011;51453;47.738;7.420;2024-03-07T10:26:53;65.18;;;35.05;;
64938;SDS011;51453;47.738;7.420;2024-03-07T10:29:21;67.50;;;36.30;;
64938;SDS011;51453;47.738;7.420;2024-03-07T10:31:48;67.95;;;35.92;;
64938;SDS011;51453;47.738;7.420;2024-03-07T10:34:14;66.53;;;36.53;;
64938;SDS011;51453;47.738;7.420;2024-03-07T10:36:42;66.72;;;34.83;;
64938;SDS011;51453;47.738;7.420;2024-03-07T10:39:08;60.22;;;34.33;;
64938;SDS011;51453;47.738;7.420;2024-03-07T10:41:48;56.90;;;32.45;;
64938;SDS011;51453;47.738;7.420;2024-03-07T10:44:23;59.42;;;32.45;;
64938;SDS011;51453;47.738;7.420;2024-03-07T10:46:54;64.35;;;34.72;;
64938;SDS011;51453;47.738;7.420;2024-03-07T10:49:21;63.13;;;33.70;;
64938;SDS011;51453;47.738;7.420;2024-03-07T10:51:53;61.83;;;33.80;;
64938;SDS011;51453;47.738;7.420;2024-03-07T11:00:09;58.42;;;31.80;;
64938;SDS011;51453;47.738;7.420;2024-03-07T11:02:55;54.90;;;30.85;;
64938;SDS011;51453;47.738;7.420;2024-03-07T11:05:21;55.00;;;31.95;;
64938;SDS011;51453;47.738;7.420;2024-03-07T11:07:54;48.22;;;27.83;;
64938;SDS011;51453;47.738;7.420;2024-03-07T11:10:36;50.28;;;28.35;;
64938;SDS011;51453;47.738;7.420;2024-03-07T11:13:06;47.97;;;28.08;;
64938;SDS011;51453;47.738;7.420;2024-03-07T11:15:37;54.08;;;30.98;;
64938;SDS011;51453;47.738;7.420;2024-03-07T11:18:07;50.88;;;29.42;;
64938;SDS011;51453;47.738;7.420;2024-03-07T11:20:38;58.40;;;29.13;;
64938;SDS011;51453;47.738;7.420;2024-03-07T11:26:01;52.33;;;27.75;;
64938;SDS011;51453;47.738;7.420;2024-03-07T11:28:37;48.30;;;26.85;;
64938;SDS011;51453;47.738;7.420;2024-03-07T11:31:13;47.45;;;26.98;;
64938;SDS011;51453;47.738;7.420;2024-03-07T11:36:43;40.42;;;24.60;;
64938;SDS011;51453;47.738;7.420;2024-03-07T11:42:06;42.08;;;24.98;;
64938;SDS011;51453;47.738;7.420;2024-03-07T11:44:33;45.40;;;25.48;;
64938;SDS011;51453;47.738;7.420;2024-03-07T11:47:05;44.75;;;26.48;;
64938;SDS011;51453;47.738;7.420;2024-03-07T11:49:36;43.60;;;27.27;;
64938;SDS011;51453;47.738;7.420;2024-03-07T11:52:05;43.10;;;25.17;;
64938;SDS011;51453;47.738;7.420;2024-03-07T11:54:41;45.22;;;25.90;;
64938;SDS011;51453;47.738;7.420;2024-03-07T11:57:17;49.92;;;27.73;;
64938;SDS011;51453;47.738;7.420;2024-03-07T11:59:44;43.42;;;25.50;;
64938;SDS011;51453;47.738;7.420;2024-03-07T12:02:14;44.33;;;25.08;;
64938;SDS011;51453;47.738;7.420;2024-03-07T12:04:44;39.38;;;24.30;;
64938;SDS011;51453;47.738;7.420;2024-03-07T12:07:09;40.60;;;24.35;;
64938;SDS011;51453;47.738;7.420;2024-03-07T12:09:38;42.65;;;23.95;;
64938;SDS011;51453;47.738;7.420;2024-03-07T12:12:05;40.53;;;24.15;;
64938;SDS011;51453;47.738;7.420;2024-03-07T12:14:31;40.33;;;23.80;;
64938;SDS011;51453;47.738;7.420;2024-03-07T12:16:59;46.50;;;25.70;;
64938;SDS011;51453;47.738;7.420;2024-03-07T12:19:29;46.20;;;25.93;;
64938;SDS011;51453;47.738;7.420;2024-03-07T12:22:01;46.85;;;25.77;;
64938;SDS011;51453;47.738;7.420;2024-03-07T12:24:28;44.17;;;25.58;;
64938;SDS011;51453;47.738;7.420;2024-03-07T12:27:04;45.15;;;24.85;;
64938;SDS011;51453;47.738;7.420;2024-03-07T12:29:35;42.97;;;23.40;;
64938;SDS011;51453;47.738;7.420;2024-03-07T12:32:03;42.42;;;24.52;;
64938;SDS011;51453;47.738;7.420;2024-03-07T12:34:31;41.47;;;24.10;;
64938;SDS011;51453;47.738;7.420;2024-03-07T12:37:01;42.05;;;24.48;;
64938;SDS011;51453;47.738;7.420;2024-03-07T12:39:28;42.15;;;23.50;;
64938;SDS011;51453;47.738;7.420;2024-03-07T12:42:01;46.40;;;25.55;;
64938;SDS011;51453;47.738;7.420;2024-03-07T12:44:38;43.28;;;23.67;;
64938;SDS011;51453;47.738;7.420;2024-03-07T12:47:08;48.85;;;26.90;;
64938;SDS011;51453;47.738;7.420;2024-03-07T12:49:35;45.70;;;26.38;;
64938;SDS011;51453;47.738;7.420;2024-03-07T12:52:00;44.85;;;25.42;;
64938;SDS011;51453;47.738;7.420;2024-03-07T12:54:26;39.35;;;23.58;;
64938;SDS011;51453;47.738;7.420;2024-03-07T12:56:52;43.28;;;25.88;;
64938;SDS011;51453;47.738;7.420;2024-03-07T12:59:17;43.95;;;24.75;;
64938;SDS011;51453;47.738;7.420;2024-03-07T13:01:44;41.72;;;24.35;;
64938;SDS011;51453;47.738;7.420;2024-03-07T13:04:12;43.47;;;24.58;;
64938;SDS011;51453;47.738;7.420;2024-03-07T13:06:39;42.53;;;22.83;;
64938;SDS011;51453;47.738;7.420;2024-03-07T13:09:08;38.33;;;22.65;;
64938;SDS011;51453;47.738;7.420;2024-03-07T13:11:37;40.00;;;23.38;;
64938;SDS011;51453;47.738;7.420;2024-03-07T13:14:06;40.57;;;23.27;;
64938;SDS011;51453;47.738;7.420;2024-03-07T13:16:32;38.13;;;22.77;;
64938;SDS011;51453;47.738;7.420;2024-03-07T13:18:58;40.30;;;23.63;;
64938;SDS011;51453;47.738;7.420;2024-03-07T13:21:24;40.85;;;22.67;;
64938;SDS011;51453;47.738;7.420;2024-03-07T13:23:52;38.90;;;23.17;;
64938;SDS011;51453;47.738;7.420;2024-03-07T13:26:20;43.33;;;23.20;;
64938;SDS011;51453;47.738;7.420;2024-03-07T13:28:50;37.83;;;22.10;;
64938;SDS011;51453;47.738;7.420;2024-03-07T13:31:16;37.28;;;22.42;;
64938;SDS011;51453;47.738;7.420;2024-03-07T13:33:42;38.25;;;22.70;;
64938;SDS011;51453;47.738;7.420;2024-03-07T13:36:09;39.53;;;22.23;;
64938;SDS011;51453;47.738;7.420;2024-03-07T13:38:35;36.42;;;21.58;;
64938;SDS011;51453;47.738;7.420;2024-03-07T13:41:01;36.10;;;22.52;;
64938;SDS011;51453;47.738;7.420;2024-03-07T13:43:30;36.75;;;21.02;;
64938;SDS011;51453;47.738;7.420;2024-03-07T13:45:58;39.55;;;22.27;;
64938;SDS011;51453;47.738;7.420;2024-03-07T13:48:24;39.00;;;22.02;;
64938;SDS011;51453;47.738;7.420;2024-03-07T13:50:50;36.67;;;22.23;;
64938;SDS011;51453;47.738;7.420;2024-03-07T13:53:18;39.88;;;23.30;;
64938;SDS011;51453;47.738;7.420;2024-03-07T14:09:19;30.98;;;18.55;;
64938;SDS011;51453;47.738;7.420;2024-03-07T14:15:18;28.83;;;18.15;;
64938;SDS011;51453;47.738;7.420;2024-03-07T14:32:49;29.33;;;17.83;;
64938;SDS011;51453;47.738;7.420;2024-03-07T14:38:06;30.45;;;17.67;;
64938;SDS011;51453;47.738;7.420;2024-03-07T14:40:38;31.88;;;18.58;;
64938;SDS011;51453;47.738;7.420;2024-03-07T14:43:04;30.92;;;18.50;;
64938;SDS011;51453;47.738;7.420;2024-03-07T14:45:34;29.55;;;18.15;;
64938;SDS011;51453;47.738;7.420;2024-03-07T14:48:02;30.58;;;18.52;;
64938;SDS011;51453;47.738;7.420;2024-03-07T14:50:29;31.65;;;18.27;;
64938;SDS011;51453;47.738;7.420;2024-03-07T14:52:57;29.02;;;18.02;;
64938;SDS011;51453;47.738;7.420;2024-03-07T14:55:24;32.30;;;17.92;;
64938;SDS011;51453;47.738;7.420;2024-03-07T14:57:50;34.45;;;20.00;;
64938;SDS011;51453;47.738;7.420;2024-03-07T15:00:15;34.53;;;20.02;;
64938;SDS011;51453;47.738;7.420;2024-03-07T15:02:47;34.58;;;20.35;;
64938;SDS011;51453;47.738;7.420;2024-03-07T15:05:15;36.17;;;20.73;;
64938;SDS011;51453;47.738;7.420;2024-03-07T15:07:41;35.35;;;20.48;;
64938;SDS011;51453;47.738;7.420;2024-03-07T15:10:31;32.90;;;19.92;;
64938;SDS011;51453;47.738;7.420;2024-03-07T15:12:58;39.20;;;21.20;;
64938;SDS011;51453;47.738;7.420;2024-03-07T15:15:25;39.08;;;21.42;;